Time;durP1;ratioP1;P1;durP2;ratioP2;P2;SDS_P1;SDS_P2;PMS_P1;PMS_P2;Temp;Humidity;BMP_temperature;BMP_pressure;BME280_temperature;BME280_humidity;BME280_pressure;Samples;Min_cycle;Max_cycle;Signal;HPM_P1;HPM_P2
2023/08/18 00:02:03;;;;;;;38.05;28.73;;;19.60;99.90;;;;;;5114010;28;20681;-75
2023/08/18 00:04:29;;;;;;;34.50;27.42;;;19.70;99.90;;;;;;5113719;28;20167;-75
2023/08/18 00:06:55;;;;;;;40.50;27.65;;;19.60;99.90;;;;;;5113664;28;20182;-75
2023/08/18 00:09:20;;;;;;;40.53;28.60;;;19.60;99.90;;;;;;5113577;28;20167;-75
2023/08/18 00:11:46;;;;;;;37.53;28.05;;;19.60;99.90;;;;;;5113717;28;20175;-75
2023/08/18 00:14:12;;;;;;;37.63;27.95;;;19.60;99.90;;;;;;5113663;28;20163;-75
2023/08/18 00:16:37;;;;;;;39.13;28.25;;;19.50;99.90;;;;;;5113538;28;20171;-75
2023/08/18 00:19:03;;;;;;;39.95;28.80;;;19.50;99.90;;;;;;5113663;28;20179;-74
2023/08/18 00:21:28;;;;;;;39.88;28.40;;;19.50;99.90;;;;;;5113244;28;20203;-74
2023/08/18 00:23:54;;;;;;;40.67;29.38;;;19.50;99.90;;;;;;5113357;28;20163;-74
2023/08/18 00:26:19;;;;;;;41.92;29.15;;;19.50;99.90;;;;;;5113533;28;20167;-75
2023/08/18 00:28:45;;;;;;;36.33;28.75;;;19.50;99.90;;;;;;5112189;28;20167;-75
2023/08/18 00:31:11;;;;;;;41.03;28.75;;;19.50;99.90;;;;;;5113650;28;20556;-75
2023/08/18 00:33:36;;;;;;;40.58;29.40;;;19.50;99.90;;;;;;5113494;28;20627;-74
2023/08/18 00:36:03;;;;;;;39.95;28.63;;;19.50;99.90;;;;;;5112116;28;20627;-74
2023/08/18 00:38:29;;;;;;;40.83;29.70;;;19.60;99.90;;;;;;5113301;28;20170;-75
2023/08/18 00:40:55;;;;;;;41.97;29.13;;;19.50;99.90;;;;;;5113378;28;20167;-76
2023/08/18 00:43:22;;;;;;;39.00;27.60;;;19.50;99.90;;;;;;5113434;28;20301;-75
2023/08/18 00:45:52;;;;;;;41.03;28.55;;;19.40;99.90;;;;;;5113445;28;20163;-75
2023/08/18 00:48:18;;;;;;;36.95;28.67;;;19.40;99.90;;;;;;5113337;28;20226;-73
2023/08/18 00:50:44;;;;;;;40.65;29.35;;;19.40;99.90;;;;;;5113411;28;20174;-74
2023/08/18 00:53:10;;;;;;;38.00;28.52;;;19.40;99.90;;;;;;5111823;28;20257;-74
2023/08/18 00:55:37;;;;;;;36.72;29.05;;;19.40;99.90;;;;;;5113441;28;20677;-74
2023/08/18 00:58:03;;;;;;;41.42;29.40;;;19.40;99.90;;;;;;5113393;28;20167;-74
2023/08/18 01:00:29;;;;;;;36.13;27.48;;;19.40;99.90;;;;;;5112022;28;20176;-75
2023/08/18 01:02:55;;;;;;;35.53;27.35;;;19.40;99.90;;;;;;5113177;28;20199;-74
2023/08/18 01:05:21;;;;;;;39.20;28.83;;;19.40;99.90;;;;;;5113185;28;20166;-74
2023/08/18 01:07:46;;;;;;;34.80;28.27;;;19.50;99.90;;;;;;5112909;28;20550;-73
2023/08/18 01:10:12;;;;;;;38.05;29.67;;;19.50;99.90;;;;;;5113096;28;20171;-74
2023/08/18 01:13:12;;;;;;;36.83;27.85;;;19.40;99.90;;;;;;5113051;28;20173;-74
2023/08/18 01:15:44;;;;;;;38.25;28.45;;;19.40;99.90;;;;;;5112966;28;20167;-73
2023/08/18 01:18:10;;;;;;;38.00;28.95;;;19.40;99.90;;;;;;5112962;28;20237;-73
2023/08/18 01:20:37;;;;;;;42.80;29.13;;;19.30;99.90;;;;;;5116152;28;20167;-74
2023/08/18 01:23:04;;;;;;;38.88;29.02;;;19.30;99.90;;;;;;5115038;28;20323;-75
2023/08/18 01:25:30;;;;;;;43.75;29.13;;;19.30;99.90;;;;;;5116732;27;20179;-73
2023/08/18 01:27:59;;;;;;;39.53;28.23;;;19.30;99.90;;;;;;5116827;28;20179;-74
2023/08/18 01:30:34;;;;;;;43.92;29.80;;;19.20;99.90;;;;;;5116947;28;20175;-74
2023/08/18 01:33:08;;;;;;;41.50;29.45;;;19.10;99.90;;;;;;5116805;28;20171;-74
2023/08/18 01:35:35;;;;;;;40.67;29.55;;;19.10;99.90;;;;;;5116475;28;20174;-73
2023/08/18 01:38:03;;;;;;;44.60;30.20;;;19.10;99.90;;;;;;5116368;28;20221;-74
2023/08/18 01:40:30;;;;;;;39.00;29.75;;;19.00;99.90;;;;;;5116272;28;20634;-74
2023/08/18 01:42:58;;;;;;;46.47;30.75;;;19.10;99.90;;;;;;5115067;28;20219;-73
2023/08/18 01:45:24;;;;;;;37.50;28.95;;;19.10;99.90;;;;;;5116326;28;20220;-74
2023/08/18 01:47:49;;;;;;;40.28;30.50;;;19.20;99.90;;;;;;5116172;28;20187;-72
2023/08/18 01:50:15;;;;;;;40.78;30.02;;;19.10;99.90;;;;;;5116309;28;20565;-73
2023/08/18 01:52:40;;;;;;;43.33;30.45;;;19.20;99.90;;;;;;5115752;28;20172;-73
2023/08/18 01:55:06;;;;;;;39.15;29.83;;;19.20;99.90;;;;;;5116003;28;20197;-74
2023/08/18 01:57:32;;;;;;;40.53;30.05;;;19.20;99.90;;;;;;5116089;28;20167;-73
2023/08/18 01:59:57;;;;;;;38.47;31.00;;;19.20;99.90;;;;;;5116009;28;20159;-74
2023/08/18 02:02:23;;;;;;;40.58;30.70;;;19.20;99.90;;;;;;5115933;28;20210;-74
2023/08/18 02:04:49;;;;;;;38.05;30.48;;;19.20;99.90;;;;;;5115912;28;20175;-74
2023/08/18 02:07:14;;;;;;;38.63;30.88;;;19.10;99.90;;;;;;5115625;28;20171;-73
2023/08/18 02:09:40;;;;;;;42.45;31.67;;;19.10;99.90;;;;;;5115717;28;20172;-73
2023/08/18 02:12:06;;;;;;;45.58;32.03;;;19.20;99.90;;;;;;5115849;28;20178;-74
2023/08/18 02:14:32;;;;;;;39.55;31.00;;;19.10;99.90;;;;;;5115881;28;20197;-74
2023/08/18 02:16:58;;;;;;;44.67;31.67;;;19.10;99.90;;;;;;5115763;28;20247;-73
2023/08/18 02:19:23;;;;;;;40.85;31.90;;;19.20;99.90;;;;;;5115284;28;20168;-73
2023/08/18 02:21:49;;;;;;;40.53;31.13;;;19.10;99.90;;;;;;5115434;28;20217;-73
2023/08/18 02:24:15;;;;;;;42.70;32.83;;;19.20;99.90;;;;;;5115429;28;20163;-73
2023/08/18 02:26:40;;;;;;;44.00;32.53;;;19.20;99.90;;;;;;5115501;28;20688;-75
2023/08/18 02:29:06;;;;;;;42.65;32.00;;;19.10;99.90;;;;;;5114249;28;20182;-74
2023/08/18 02:31:32;;;;;;;43.55;33.15;;;19.20;99.90;;;;;;5114453;27;20167;-74
2023/08/18 02:33:57;;;;;;;43.47;31.50;;;19.20;99.90;;;;;;5115324;28;20678;-73
2023/08/18 02:36:23;;;;;;;43.55;34.40;;;19.30;99.90;;;;;;5115421;28;20210;-73
2023/08/18 02:38:49;;;;;;;42.50;33.22;;;19.30;99.90;;;;;;5115258;28;20657;-73
2023/08/18 02:41:17;;;;;;;45.60;33.67;;;19.30;99.90;;;;;;5114994;28;20247;-74
2023/08/18 02:43:48;;;;;;;45.67;33.65;;;19.30;99.90;;;;;;5113851;28;20207;-73
2023/08/18 02:46:13;;;;;;;40.22;32.15;;;19.30;99.90;;;;;;5115394;28;20175;-73
2023/08/18 02:48:39;;;;;;;45.53;33.20;;;19.20;99.90;;;;;;5114588;28;20198;-73
2023/08/18 02:51:07;;;;;;;43.95;32.83;;;19.20;99.90;;;;;;5114938;28;20175;-73
2023/08/18 02:53:33;;;;;;;49.20;34.90;;;19.20;99.90;;;;;;5114825;27;20167;-73
2023/08/18 02:56:00;;;;;;;46.83;34.67;;;19.20;99.90;;;;;;5114940;27;20186;-73
2023/08/18 02:58:30;;;;;;;44.10;33.35;;;19.30;99.90;;;;;;5114845;28;20191;-74
2023/08/18 03:01:00;;;;;;;48.33;35.05;;;19.40;99.90;;;;;;5114865;28;20171;-74
2023/08/18 03:03:26;;;;;;;44.83;33.85;;;19.40;99.90;;;;;;5114422;28;20254;-74
2023/08/18 03:05:52;;;;;;;45.33;33.72;;;19.40;99.90;;;;;;5114732;28;20255;-73
2023/08/18 03:08:18;;;;;;;46.88;33.72;;;19.40;99.90;;;;;;5114612;28;20668;-73
2023/08/18 03:10:44;;;;;;;48.22;34.30;;;19.40;99.90;;;;;;5114708;28;20163;-73
2023/08/18 03:13:10;;;;;;;45.20;34.97;;;19.30;99.90;;;;;;5114577;28;20233;-73
2023/08/18 03:15:40;;;;;;;47.75;35.50;;;19.30;99.90;;;;;;5114229;28;20202;-73
2023/08/18 03:18:06;;;;;;;44.95;33.83;;;19.30;99.90;;;;;;5113427;28;20670;-73
2023/08/18 03:20:31;;;;;;;46.72;33.95;;;19.30;99.90;;;;;;5114031;28;20175;-73
2023/08/18 03:22:57;;;;;;;45.90;34.35;;;19.40;99.90;;;;;;5114068;28;20211;-73
2023/08/18 03:25:23;;;;;;;48.60;35.75;;;19.40;99.90;;;;;;5114207;28;20171;-74
2023/08/18 03:27:50;;;;;;;57.08;38.45;;;19.40;99.90;;;;;;5113983;28;20171;-73
2023/08/18 03:30:16;;;;;;;52.97;37.63;;;19.30;99.90;;;;;;5114153;28;20167;-73
2023/08/18 03:32:41;;;;;;;59.65;39.70;;;19.40;99.90;;;;;;5113562;28;20168;-73
2023/08/18 03:35:07;;;;;;;54.10;37.63;;;19.30;99.90;;;;;;5113873;28;20648;-73
2023/08/18 03:37:33;;;;;;;58.65;39.42;;;19.20;99.90;;;;;;5114145;28;20175;-74
2023/08/18 03:39:58;;;;;;;59.05;40.08;;;19.20;99.90;;;;;;5114173;28;20558;-74
2023/08/18 03:42:24;;;;;;;62.25;41.83;;;19.30;99.90;;;;;;5113510;28;20195;-74
2023/08/18 03:44:49;;;;;;;60.47;39.90;;;19.30;99.90;;;;;;5114038;28;20626;-74
2023/08/18 03:47:15;;;;;;;62.67;41.45;;;19.40;99.90;;;;;;5113274;28;20183;-74
2023/08/18 03:49:41;;;;;;;60.35;41.03;;;19.40;99.90;;;;;;5113719;28;20171;-74
2023/08/18 03:52:06;;;;;;;62.28;40.95;;;19.30;99.90;;;;;;5113646;28;20195;-74
2023/08/18 03:54:32;;;;;;;65.05;42.15;;;19.30;99.90;;;;;;5113652;28;20645;-74
2023/08/18 03:56:57;;;;;;;60.60;41.90;;;19.30;99.90;;;;;;5113485;28;20618;-74
2023/08/18 03:59:23;;;;;;;64.40;42.42;;;19.30;99.90;;;;;;5113310;28;20183;-74
2023/08/18 04:01:48;;;;;;;65.68;44.47;;;19.30;99.90;;;;;;5113355;28;20234;-73
2023/08/18 04:04:14;;;;;;;62.92;42.45;;;19.30;99.90;;;;;;5113436;28;20175;-73
2023/08/18 04:06:40;;;;;;;62.20;40.35;;;19.30;99.90;;;;;;5113475;28;20163;-74
2023/08/18 04:09:08;;;;;;;67.85;43.88;;;19.20;99.90;;;;;;5113425;28;20167;-74
2023/08/18 04:11:34;;;;;;;69.57;44.50;;;19.10;99.90;;;;;;5113230;28;20185;-73
2023/08/18 04:14:00;;;;;;;67.47;44.40;;;19.10;99.90;;;;;;5113381;28;20163;-74
2023/08/18 04:16:26;;;;;;;65.85;44.42;;;19.10;99.90;;;;;;5113119;28;20200;-72
2023/08/18 04:18:52;;;;;;;77.05;46.38;;;19.00;99.90;;;;;;5113020;28;20226;-73
2023/08/18 04:21:17;;;;;;;72.57;46.50;;;19.00;99.90;;;;;;5112955;28;20210;-73
2023/08/18 04:23:43;;;;;;;76.40;47.25;;;19.00;99.90;;;;;;5113137;28;20713;-73
2023/08/18 04:26:12;;;;;;;75.32;48.33;;;19.00;99.90;;;;;;5113525;28;20167;-74
2023/08/18 04:28:37;;;;;;;73.45;47.25;;;19.00;99.90;;;;;;5113396;28;20626;-74
2023/08/18 04:31:03;;;;;;;75.75;46.45;;;19.00;99.90;;;;;;5112440;28;20179;-73
2023/08/18 04:33:28;;;;;;;77.68;46.22;;;19.00;99.90;;;;;;5112805;28;20167;-73
2023/08/18 04:35:54;;;;;;;73.72;45.40;;;19.00;99.90;;;;;;5113229;28;20254;-74
2023/08/18 04:38:20;;;;;;;76.78;46.38;;;18.90;99.90;;;;;;5113433;28;20171;-74
2023/08/18 04:41:01;;;;;;;75.95;48.20;;;18.90;99.90;;;;;;5112926;28;20175;-74
2023/08/18 04:43:28;;;;;;;74.25;46.72;;;19.00;99.90;;;;;;5113286;28;20190;-74
2023/08/18 04:45:54;;;;;;;77.30;47.80;;;19.00;99.90;;;;;;5112716;28;20155;-72
2023/08/18 04:48:21;;;;;;;84.47;48.95;;;18.90;99.90;;;;;;5113046;28;20191;-73
2023/08/18 04:50:46;;;;;;;78.15;47.60;;;18.90;99.90;;;;;;5112746;28;20645;-73
2023/08/18 04:53:12;;;;;;;79.43;47.13;;;19.00;99.90;;;;;;5112689;28;20175;-73
2023/08/18 04:55:39;;;;;;;79.95;47.45;;;18.90;99.90;;;;;;5115566;28;20228;-73
2023/08/18 04:58:04;;;;;;;79.50;48.17;;;18.90;99.90;;;;;;5116758;28;20179;-74
2023/08/18 05:00:30;;;;;;;77.95;46.95;;;18.90;99.90;;;;;;5116692;28;20224;-74
2023/08/18 05:02:56;;;;;;;74.80;45.78;;;18.90;99.90;;;;;;5116621;28;20207;-73
2023/08/18 05:05:21;;;;;;;81.78;47.90;;;18.90;99.90;;;;;;5116650;28;20171;-73
2023/08/18 05:07:47;;;;;;;80.55;48.88;;;18.90;99.90;;;;;;5117019;28;20167;-75
2023/08/18 05:10:13;;;;;;;84.45;49.40;;;18.90;99.90;;;;;;5115827;28;20170;-73
2023/08/18 05:12:39;;;;;;;84.15;50.15;;;18.80;99.90;;;;;;5116761;28;20224;-73
2023/08/18 05:15:05;;;;;;;90.85;50.63;;;18.70;99.90;;;;;;5115716;28;20697;-73
2023/08/18 05:17:30;;;;;;;86.85;50.22;;;18.70;99.90;;;;;;5116099;28;20717;-73
2023/08/18 05:19:56;;;;;;;89.70;50.42;;;18.70;99.90;;;;;;5116274;28;20163;-74
2023/08/18 05:22:22;;;;;;;91.10;51.67;;;18.80;99.90;;;;;;5116575;28;20214;-74
2023/08/18 05:24:52;;;;;;;94.07;52.50;;;18.80;99.90;;;;;;5116025;28;20198;-73
2023/08/18 05:27:17;;;;;;;90.75;52.50;;;18.80;99.90;;;;;;5116153;28;20183;-73
2023/08/18 05:29:43;;;;;;;97.05;53.25;;;18.80;99.90;;;;;;5115718;28;20645;-73
2023/08/18 05:32:09;;;;;;;99.75;54.10;;;18.70;99.90;;;;;;5115844;28;20623;-73
2023/08/18 05:34:35;;;;;;;92.45;50.22;;;18.70;99.90;;;;;;5115810;28;20197;-74
2023/08/18 05:37:00;;;;;;;107.80;55.13;;;18.70;99.90;;;;;;5116239;28;20182;-72
2023/08/18 05:39:27;;;;;;;99.43;54.63;;;18.70;99.90;;;;;;5116116;28;20198;-74
2023/08/18 05:41:52;;;;;;;101.38;53.88;;;18.60;99.90;;;;;;5115430;28;20658;-74
2023/08/18 05:44:18;;;;;;;101.00;53.00;;;18.60;99.90;;;;;;5114992;28;20204;-74
2023/08/18 05:46:44;;;;;;;92.38;48.97;;;18.70;99.90;;;;;;5115803;28;20577;-74
2023/08/18 05:49:10;;;;;;;96.88;49.47;;;18.60;99.90;;;;;;5115674;28;20195;-72
2023/08/18 05:51:35;;;;;;;101.40;52.40;;;18.50;99.90;;;;;;5115460;28;20525;-74
2023/08/18 05:54:03;;;;;;;89.32;49.15;;;18.60;99.90;;;;;;5115659;28;20174;-73
2023/08/18 05:56:29;;;;;;;93.38;51.28;;;18.60;99.90;;;;;;5115729;28;20228;-73
2023/08/18 05:58:54;;;;;;;89.18;46.75;;;18.60;99.90;;;;;;5115194;28;20252;-73
2023/08/18 06:01:20;;;;;;;79.18;44.97;;;18.60;99.90;;;;;;5115025;28;20174;-74
2023/08/18 06:03:46;;;;;;;76.35;42.75;;;18.50;99.90;;;;;;5114653;28;20182;-73
2023/08/18 06:06:11;;;;;;;81.28;45.08;;;18.50;99.90;;;;;;5115276;28;20179;-73
2023/08/18 06:08:37;;;;;;;86.97;45.85;;;18.50;99.90;;;;;;5115595;28;20541;-74
2023/08/18 06:11:03;;;;;;;93.90;48.53;;;18.50;99.90;;;;;;5114677;28;20655;-74
2023/08/18 06:13:28;;;;;;;95.63;49.90;;;18.40;99.90;;;;;;5114584;28;20175;-73
2023/08/18 06:15:54;;;;;;;91.63;46.25;;;18.40;99.90;;;;;;5115234;28;20175;-73
2023/08/18 06:18:21;;;;;;;99.07;50.30;;;18.50;99.90;;;;;;5114184;28;20686;-74
2023/08/18 06:20:46;;;;;;;102.50;50.47;;;18.40;99.90;;;;;;5113307;28;20676;-72
2023/08/18 06:23:12;;;;;;;100.10;50.60;;;18.50;99.90;;;;;;5114979;28;20218;-73
2023/08/18 06:25:39;;;;;;;98.97;49.20;;;18.40;99.90;;;;;;5114817;28;20645;-73
2023/08/18 06:28:06;;;;;;;103.57;50.00;;;18.40;99.90;;;;;;5114492;28;20280;-74
2023/08/18 06:30:32;;;;;;;96.55;49.90;;;18.40;99.90;;;;;;5113752;28;20174;-73
2023/08/18 06:32:58;;;;;;;92.65;43.20;;;18.50;99.90;;;;;;5114565;28;20250;-73
2023/08/18 06:35:24;;;;;;;92.03;47.88;;;18.40;99.90;;;;;;5114728;28;20171;-73
2023/08/18 06:37:50;;;;;;;97.72;48.92;;;18.40;99.90;;;;;;5115052;28;20167;-73
2023/08/18 06:40:15;;;;;;;96.93;48.03;;;18.50;99.90;;;;;;5114505;28;20163;-74
2023/08/18 06:42:41;;;;;;;91.00;46.75;;;18.60;99.90;;;;;;5113726;28;20203;-73
2023/08/18 06:45:07;;;;;;;86.68;43.67;;;18.50;99.90;;;;;;5114746;28;20523;-73
2023/08/18 06:47:33;;;;;;;91.15;46.17;;;18.50;99.90;;;;;;5114604;28;20191;-73
2023/08/18 06:49:59;;;;;;;85.68;44.78;;;18.60;99.90;;;;;;5114809;28;20194;-73
2023/08/18 06:52:26;;;;;;;82.97;45.10;;;18.60;99.90;;;;;;5114366;28;20176;-73
2023/08/18 06:54:52;;;;;;;83.13;43.20;;;18.50;99.90;;;;;;5114092;28;20172;-73
2023/08/18 06:57:17;;;;;;;76.85;43.30;;;18.60;99.90;;;;;;5114373;28;20596;-73
2023/08/18 06:59:43;;;;;;;87.53;45.60;;;18.60;99.90;;;;;;5114430;28;20622;-73
2023/08/18 07:02:08;;;;;;;79.43;43.20;;;18.60;99.90;;;;;;5114013;28;20389;-73
2023/08/18 07:04:34;;;;;;;77.45;42.70;;;18.60;99.90;;;;;;5113248;28;20170;-74
2023/08/18 07:07:00;;;;;;;79.80;43.35;;;18.70;99.90;;;;;;5111693;28;20578;-73
2023/08/18 07:09:25;;;;;;;84.03;43.92;;;18.70;99.90;;;;;;5112279;28;20174;-74
2023/08/18 07:11:51;;;;;;;81.78;42.25;;;18.70;99.90;;;;;;5113557;28;20183;-74
2023/08/18 07:14:17;;;;;;;86.50;44.22;;;18.70;99.90;;;;;;5113882;28;20215;-74
2023/08/18 07:16:43;;;;;;;83.65;45.85;;;18.60;99.90;;;;;;5113107;28;20174;-74
2023/08/18 07:19:09;;;;;;;91.55;47.08;;;18.70;99.90;;;;;;5113627;28;20609;-74
2023/08/18 07:21:34;;;;;;;85.88;44.70;;;18.70;99.90;;;;;;5113861;28;20290;-73
2023/08/18 07:24:00;;;;;;;79.22;44.85;;;18.70;99.90;;;;;;5112161;28;20166;-72
2023/08/18 07:26:26;;;;;;;80.57;46.50;;;18.90;99.90;;;;;;5113895;28;20186;-74
2023/08/18 07:28:52;;;;;;;80.13;44.20;;;18.90;99.90;;;;;;5114162;28;20180;-74
2023/08/18 07:31:17;;;;;;;83.15;44.15;;;18.90;99.90;;;;;;5113399;28;20187;-74
2023/08/18 07:33:43;;;;;;;81.18;43.80;;;18.90;99.90;;;;;;5113334;28;20167;-74
2023/08/18 07:36:09;;;;;;;86.70;46.85;;;18.90;99.90;;;;;;5113973;28;20266;-74
2023/08/18 07:38:35;;;;;;;81.95;44.50;;;19.00;99.90;;;;;;5113585;28;20253;-74
2023/08/18 07:41:01;;;;;;;80.75;43.45;;;18.90;99.90;;;;;;5111968;28;20202;-74
2023/08/18 07:43:26;;;;;;;71.55;38.22;;;18.90;99.90;;;;;;5113590;28;20218;-75
2023/08/18 07:45:52;;;;;;;60.10;36.60;;;18.80;99.90;;;;;;5113509;28;20266;-74
2023/08/18 07:48:18;;;;;;;64.95;35.47;;;18.90;99.90;;;;;;5113435;28;20188;-74
2023/08/18 07:50:43;;;;;;;66.57;37.15;;;18.80;99.90;;;;;;5113193;28;20530;-74
2023/08/18 07:53:09;;;;;;;61.17;33.20;;;18.80;99.90;;;;;;5112971;28;20558;-74
2023/08/18 07:55:36;;;;;;;58.42;34.35;;;18.80;99.90;;;;;;5113641;28;20173;-74
2023/08/18 07:58:03;;;;;;;54.72;33.13;;;18.70;99.90;;;;;;5113271;27;20634;-74
2023/08/18 08:00:30;;;;;;;48.47;29.95;;;18.80;99.90;;;;;;5113364;28;20587;-75
2023/08/18 08:02:57;;;;;;;49.63;30.45;;;18.70;99.90;;;;;;5113065;28;20203;-74
2023/08/18 08:05:22;;;;;;;52.55;32.38;;;18.80;99.90;;;;;;5113155;28;20163;-76
2023/08/18 08:07:49;;;;;;;56.58;33.67;;;18.90;99.90;;;;;;5112965;28;20668;-74
2023/08/18 08:10:15;;;;;;;51.03;32.13;;;19.00;99.90;;;;;;5112741;28;20167;-74
2023/08/18 08:12:41;;;;;;;57.15;33.05;;;19.00;99.90;;;;;;5112650;28;20689;-73
2023/08/18 08:15:09;;;;;;;54.13;32.70;;;18.90;99.90;;;;;;5111547;28;20312;-74
2023/08/18 08:17:35;;;;;;;53.10;33.35;;;18.90;99.90;;;;;;5112620;28;20263;-74
2023/08/18 08:20:07;;;;;;;48.80;29.88;;;19.10;99.90;;;;;;5113207;28;20167;-74
2023/08/18 08:22:33;;;;;;;50.80;32.75;;;19.10;99.90;;;;;;5111543;28;20214;-74
2023/08/18 08:24:58;;;;;;;52.65;31.95;;;19.20;99.90;;;;;;5112737;28;20175;-74
2023/08/18 08:27:24;;;;;;;52.13;32.33;;;19.20;99.90;;;;;;5111818;28;20175;-74
2023/08/18 08:29:51;;;;;;;47.15;29.75;;;19.40;99.90;;;;;;5115376;28;20660;-74
2023/08/18 08:32:17;;;;;;;50.75;32.58;;;19.40;99.90;;;;;;5115549;28;20175;-74
2023/08/18 08:34:49;;;;;;;52.25;32.85;;;19.40;99.90;;;;;;5117091;28;20614;-74
2023/08/18 08:37:15;;;;;;;46.70;29.95;;;19.50;99.90;;;;;;5116901;28;20167;-74
2023/08/18 08:39:40;;;;;;;50.92;31.88;;;19.50;99.90;;;;;;5117173;28;20167;-74
2023/08/18 08:42:06;;;;;;;47.70;31.05;;;19.70;99.90;;;;;;5116822;28;20721;-73
2023/08/18 08:44:32;;;;;;;51.95;33.72;;;19.70;99.90;;;;;;5117261;28;20174;-73
2023/08/18 08:47:00;;;;;;;55.45;33.08;;;19.80;99.90;;;;;;5116904;27;20163;-74
2023/08/18 08:49:29;;;;;;;53.05;32.55;;;19.60;99.90;;;;;;5116764;27;20618;-73
2023/08/18 08:51:59;;;;;;;53.30;33.78;;;19.60;99.90;;;;;;5116106;27;20163;-74
2023/08/18 08:54:26;;;;;;;54.78;33.42;;;19.80;99.90;;;;;;5117479;28;20254;-74
2023/08/18 08:56:52;;;;;;;57.03;34.03;;;19.60;99.90;;;;;;5116538;28;20202;-74
2023/08/18 08:59:18;;;;;;;54.60;34.33;;;19.40;99.90;;;;;;5116552;28;20290;-75
2023/08/18 09:01:44;;;;;;;57.00;34.75;;;19.40;99.90;;;;;;5116099;28;20191;-73
2023/08/18 09:04:10;;;;;;;53.20;35.03;;;19.60;99.90;;;;;;5116891;28;20172;-74
2023/08/18 09:06:36;;;;;;;59.42;34.33;;;19.90;99.90;;;;;;5116435;28;20170;-74
2023/08/18 09:09:03;;;;;;;58.88;35.60;;;20.10;99.90;;;;;;5115999;28;20163;-74
2023/08/18 09:11:42;;;;;;;55.25;34.58;;;20.20;99.90;;;;;;5116378;28;20167;-75
2023/08/18 09:14:08;;;;;;;56.45;34.40;;;20.30;99.90;;;;;;5116705;28;20163;-74
2023/08/18 09:16:34;;;;;;;57.45;34.63;;;20.50;99.90;;;;;;5116221;28;20163;-73
2023/08/18 09:19:01;;;;;;;51.65;33.80;;;20.40;99.90;;;;;;5116318;28;20190;-75
2023/08/18 09:21:27;;;;;;;49.95;33.17;;;20.50;99.90;;;;;;5115992;28;20167;-74
2023/08/18 09:23:57;;;;;;;54.53;34.33;;;20.40;99.90;;;;;;5115484;28;20175;-74
2023/08/18 09:26:24;;;;;;;52.80;32.40;;;20.50;99.90;;;;;;5116414;28;20171;-73
2023/08/18 09:28:50;;;;;;;53.30;34.40;;;20.40;99.90;;;;;;5116215;28;20619;-74
2023/08/18 09:31:15;;;;;;;58.10;36.17;;;20.40;99.90;;;;;;5114552;28;20175;-74
2023/08/18 09:33:41;;;;;;;52.35;33.55;;;20.60;99.90;;;;;;5115764;28;20182;-73
2023/08/18 09:36:11;;;;;;;58.80;36.10;;;20.70;99.90;;;;;;5115937;28;20231;-74
2023/08/18 09:38:43;;;;;;;57.80;35.40;;;20.60;99.90;;;;;;5116286;28;20526;-74
2023/08/18 09:41:12;;;;;;;53.53;34.15;;;20.60;99.90;;;;;;5114207;28;20614;-74
2023/08/18 09:43:39;;;;;;;56.65;35.63;;;20.70;99.90;;;;;;5115679;28;20198;-74
2023/08/18 09:46:06;;;;;;;54.45;36.15;;;20.80;99.90;;;;;;5115892;28;20160;-74
2023/08/18 09:48:39;;;;;;;57.28;36.03;;;20.40;99.90;;;;;;5115733;28;20191;-72
2023/08/18 09:51:09;;;;;;;61.25;35.33;;;20.50;99.90;;;;;;5115779;28;20167;-74
2023/08/18 09:53:36;;;;;;;56.00;36.42;;;20.50;99.90;;;;;;5115761;28;20220;-74
2023/08/18 09:56:11;;;;;;;66.00;37.95;;;20.30;99.90;;;;;;5115309;28;20171;-73
2023/08/18 09:58:58;;;;;;;62.80;38.72;;;20.30;99.90;;;;;;5115771;28;20191;-74
2023/08/18 10:01:27;;;;;;;58.63;37.08;;;20.40;99.90;;;;;;5115324;28;20171;-74
2023/08/18 10:03:53;;;;;;;60.47;36.95;;;20.70;99.90;;;;;;5114872;28;20175;-74
2023/08/18 10:06:19;;;;;;;57.85;37.13;;;20.80;99.90;;;;;;5115251;28;20523;-73
2023/08/18 10:08:45;;;;;;;62.92;38.13;;;20.70;99.90;;;;;;5115741;28;20167;-74
2023/08/18 10:11:11;;;;;;;59.10;36.85;;;20.90;99.90;;;;;;5114226;28;20175;-74
2023/08/18 10:13:37;;;;;;;60.42;34.97;;;20.90;99.90;;;;;;5114637;28;20163;-73
2023/08/18 10:16:05;;;;;;;62.72;38.20;;;20.90;99.90;;;;;;5115172;28;20182;-74
2023/08/18 10:18:32;;;;;;;60.67;37.25;;;20.60;99.90;;;;;;5114534;28;20221;-74
2023/08/18 10:20:58;;;;;;;60.20;36.65;;;20.70;99.90;;;;;;5115542;28;20240;-74
2023/08/18 10:23:24;;;;;;;58.45;36.70;;;20.80;99.90;;;;;;5115097;28;20215;-74
2023/08/18 10:25:51;;;;;;;56.95;36.83;;;20.70;99.90;;;;;;5114885;28;20654;-74
2023/08/18 10:28:20;;;;;;;61.08;37.50;;;20.90;99.90;;;;;;5115098;28;20175;-74
2023/08/18 10:30:50;;;;;;;59.78;36.13;;;21.20;99.90;;;;;;5115193;28;20183;-75
2023/08/18 10:33:47;;;;;;;58.08;37.25;;;21.40;99.90;;;;;;5114541;28;20175;-75
2023/08/18 10:36:26;;;;;;;58.67;37.85;;;21.60;99.90;;;;;;5114483;28;20262;-75
2023/08/18 10:38:54;;;;;;;56.53;36.15;;;22.00;99.90;;;;;;5115184;28;20262;-75
2023/08/18 10:41:29;;;;;;;61.60;37.28;;;22.20;99.90;;;;;;5114465;28;20166;-75
2023/08/18 10:43:57;;;;;;;52.33;33.80;;;22.50;99.90;;;;;;5115164;28;20296;-75
2023/08/18 10:46:36;;;;;;;61.35;37.58;;;22.30;99.90;;;;;;5114740;28;20159;-74
2023/08/18 10:49:02;;;;;;;54.35;35.83;;;21.90;99.90;;;;;;5113946;28;20195;-75
2023/08/18 10:51:28;;;;;;;56.13;36.88;;;22.30;99.90;;;;;;5113636;28;20178;-76
2023/08/18 10:53:54;;;;;;;58.00;36.33;;;22.60;99.90;;;;;;5113992;28;20607;-76
2023/08/18 10:56:20;;;;;;;54.97;35.47;;;22.80;99.90;;;;;;5114997;28;20167;-76
2023/08/18 10:58:46;;;;;;;51.05;33.83;;;23.40;99.90;;;;;;5114831;28;20247;-75
2023/08/18 11:01:12;;;;;;;49.92;34.03;;;24.30;99.90;;;;;;5114296;28;20186;-75
2023/08/18 11:03:39;;;;;;;48.50;33.63;;;24.90;99.90;;;;;;5113603;28;20213;-76
2023/08/18 11:06:05;;;;;;;46.97;33.50;;;25.30;99.90;;;;;;5114508;28;20167;-75
2023/08/18 11:08:30;;;;;;;47.72;32.55;;;25.40;99.90;;;;;;5114942;28;20232;-75
2023/08/18 11:10:56;;;;;;;46.63;33.30;;;25.20;99.90;;;;;;5113966;28;20615;-76
2023/08/18 11:13:31;;;;;;;46.35;34.35;;;25.50;99.90;;;;;;5113032;28;20364;-77
2023/08/18 11:15:57;;;;;;;52.15;35.30;;;25.70;99.90;;;;;;5114051;28;20253;-76
2023/08/18 11:18:25;;;;;;;54.17;36.00;;;25.80;99.90;;;;;;5113219;28;20721;-75
2023/08/18 11:20:51;;;;;;;44.63;33.70;;;26.00;99.90;;;;;;5114505;28;20179;-76
2023/08/18 11:23:18;;;;;;;43.15;30.80;;;26.90;99.90;;;;;;5113849;28;20206;-76
2023/08/18 11:25:45;;;;;;;42.97;31.83;;;27.40;99.90;;;;;;5113916;28;20611;-76
2023/08/18 11:28:13;;;;;;;43.63;31.70;;;27.90;99.90;;;;;;5112593;28;20175;-75
2023/08/18 11:30:38;;;;;;;43.35;32.28;;;28.10;99.90;;;;;;5113184;28;20167;-75
2023/08/18 11:33:04;;;;;;;43.55;31.92;;;27.40;99.90;;;;;;5113610;28;20175;-75
2023/08/18 11:35:31;;;;;;;39.83;29.42;;;27.40;99.90;;;;;;5113854;28;20536;-74
2023/08/18 11:37:57;;;;;;;45.13;32.00;;;26.80;99.90;;;;;;5113852;28;20209;-74
2023/08/18 11:40:23;;;;;;;43.53;31.42;;;26.40;99.90;;;;;;5111682;28;20171;-74
2023/08/18 11:42:54;;;;;;;44.15;32.35;;;26.30;99.90;;;;;;5113680;28;20704;-74
2023/08/18 11:45:24;;;;;;;47.25;32.22;;;25.90;99.90;;;;;;5113177;28;20159;-74
2023/08/18 11:48:18;;;;;;;43.55;32.45;;;25.60;99.90;;;;;;5113508;28;20183;-73
2023/08/18 11:50:43;;;;;;;43.40;32.03;;;26.20;99.90;;;;;;5110813;28;20205;-72
2023/08/18 11:53:09;;;;;;;44.83;31.60;;;26.10;99.90;;;;;;5112680;28;20615;-74
2023/08/18 11:55:43;;;;;;;42.72;30.92;;;26.00;99.90;;;;;;5112304;28;20182;-73
2023/08/18 11:58:14;;;;;;;43.78;29.33;;;26.50;99.90;;;;;;5113353;28;20171;-74
2023/08/18 12:00:42;;;;;;;43.03;30.52;;;26.90;99.90;;;;;;5113092;28;20175;-74
2023/08/18 12:03:21;;;;;;;43.70;32.03;;;27.90;99.90;;;;;;5112799;28;20302;-75
2023/08/18 12:05:46;;;;;;;54.05;36.42;;;27.40;99.90;;;;;;5113678;28;20174;-75
2023/08/18 12:08:12;;;;;;;44.50;32.53;;;25.90;99.90;;;;;;5113391;28;20251;-73
2023/08/18 12:10:38;;;;;;;48.33;32.08;;;26.20;99.90;;;;;;5112936;28;20687;-73
2023/08/18 12:13:04;;;;;;;47.10;32.85;;;26.70;99.90;;;;;;5113090;28;20175;-74
2023/08/18 12:15:30;;;;;;;40.75;31.02;;;26.80;99.90;;;;;;5113061;28;20626;-73
2023/08/18 12:17:55;;;;;;;46.75;31.42;;;27.10;99.90;;;;;;5111466;28;20219;-74
2023/08/18 12:20:23;;;;;;;42.00;30.58;;;27.40;99.90;;;;;;5113005;28;20182;-74
2023/08/18 12:22:51;;;;;;;43.00;29.42;;;27.30;99.90;;;;;;5112725;28;20203;-72
2023/08/18 12:25:24;;;;;;;42.08;31.23;;;27.10;99.90;;;;;;5112771;28;20167;-73